Martin Challenger — WDB2346 — position and weather

sailwx.info

Track history (hours):
 
Tides and Currents Weather Stations Pressure Air Temp Water Temp Dewpoint Dewpoint Depression Visibility Wind Speed Wind Dir Waves Ship Positions

Martin Challenger

Owner: MARTIN OPERATING PARTNERSHIP LP, VIDOR, TX. More information available from US FCC via Universal Licensing System and Coast Guard Vessel Documentation Center.

Last reported at 2016-May-28 13:28 UTC. Time now 2016-May-28 19:49 UTC.
Position N 29°21' W 094°49'.

Length 20 m.

MMSI: 366874920.

Date/timePositionNaut miles runAvg speedWind from/ knotsBaromVisibWave heightAir tempDewpointWater temp
2016-May-28 13:28N 29°21' W 094°49'0 0.0
2016-May-28 12:19N 29°21' W 094°49'0 0.0
2016-May-28 07:11N 29°21' W 094°49'0 0.0
2016-May-28 04:30N 29°21' W 094°49'0 0.0
2016-May-28 02:29N 29°21' W 094°49'  
2016-May-21 19:24N 29°24' W 094°49'5 6.5
2016-May-21 18:33N 29°29' W 094°52'6 6.4
2016-May-21 17:33N 29°34' W 094°56'6 6.4
2016-May-21 16:34N 29°40' W 094°59'5 5.5
2016-May-21 15:33N 29°44' W 095°03'3 2.8
2016-May-21 14:32N 29°47' W 095°05'0 0.0
2016-May-21 13:11N 29°47' W 095°05'1 0.9
2016-May-21 12:32N 29°46' W 095°05'2 1.3
2016-May-21 11:19N 29°46' W 095°07'2 2.0
2016-May-21 10:32N 29°46' W 095°05'1 0.0
2016-May-20 08:29N 29°46' W 095°04'3 3.7
2016-May-20 07:34N 29°43' W 095°01'1 0.7
2016-May-20 06:34N 29°43' W 095°01'4 4.4
2016-May-20 05:33N 29°39' W 094°58'6 5.6
2016-May-20 04:33N 29°34' W 094°55'14 5.6
2016-May-20 02:06N 29°22' W 094°48'2 0.1
2016-May-18 14:32N 29°22' W 094°50'  
Track history (hours):
 
Tides and Currents Weather Stations Pressure Air Temp Water Temp Dewpoint Dewpoint Depression Visibility Wind Speed Wind Dir Waves Ship Positions

Martin Challenger

Owner: MARTIN OPERATING PARTNERSHIP LP, VIDOR, TX. More information available from US FCC via Universal Licensing System and Coast Guard Vessel Documentation Center.

Last reported at 2016-May-28 13:28 UTC. Time now 2016-May-28 19:49 UTC.
Position N 29°21' W 094°49'.

Length 20 m.

MMSI: 366874920.

Date/timePositionNaut miles runAvg speedWind from/ knotsBaromVisibWave heightAir tempDewpointWater temp
2016-May-28 13:28N 29°21' W 094°49'0 0.0
2016-May-28 12:19N 29°21' W 094°49'0 0.0
2016-May-28 07:11N 29°21' W 094°49'0 0.0
2016-May-28 04:30N 29°21' W 094°49'0 0.0
2016-May-28 02:29N 29°21' W 094°49'  
2016-May-21 19:24N 29°24' W 094°49'5 6.5
2016-May-21 18:33N 29°29' W 094°52'6 6.4
2016-May-21 17:33N 29°34' W 094°56'6 6.4
2016-May-21 16:34N 29°40' W 094°59'5 5.5
2016-May-21 15:33N 29°44' W 095°03'3 2.8
2016-May-21 14:32N 29°47' W 095°05'0 0.0
2016-May-21 13:11N 29°47' W 095°05'1 0.9
2016-May-21 12:32N 29°46' W 095°05'2 1.3
2016-May-21 11:19N 29°46' W 095°07'2 2.0
2016-May-21 10:32N 29°46' W 095°05'1 0.0
2016-May-20 08:29N 29°46' W 095°04'3 3.7
2016-May-20 07:34N 29°43' W 095°01'1 0.7
2016-May-20 06:34N 29°43' W 095°01'4 4.4
2016-May-20 05:33N 29°39' W 094°58'6 5.6
2016-May-20 04:33N 29°34' W 094°55'14 5.6
2016-May-20 02:06N 29°22' W 094°48'2 0.1
2016-May-18 14:32N 29°22' W 094°50'  

Dump ship's entire track history